createdAt,value
2023-02-03T00:01:33.225Z,100868.50
2023-02-03T00:04:45.882Z,100873.41
2023-02-03T00:07:58.213Z,100885.94
2023-02-03T00:11:10.824Z,100878.94
2023-02-03T00:14:23.140Z,100864.09
2023-02-03T00:17:35.783Z,100880.00
2023-02-03T00:20:48.176Z,100889.78
2023-02-03T00:24:00.866Z,100887.94
2023-02-03T00:27:14.306Z,100888.63
2023-02-03T00:30:27.260Z,100905.13
2023-02-03T00:33:39.815Z,100916.69
2023-02-03T00:36:52.461Z,100919.00
2023-02-03T00:40:05.186Z,100927.06
2023-02-03T00:43:17.824Z,100929.06
2023-02-03T00:46:30.152Z,100932.81
2023-02-03T00:49:42.826Z,100935.84
2023-02-03T00:52:55.509Z,100939.13
2023-02-03T00:56:12.758Z,100922.53
2023-02-03T00:59:25.229Z,100936.44
2023-02-03T01:02:37.871Z,100937.50
2023-02-03T01:05:50.207Z,100929.53
2023-02-03T01:09:03.009Z,100936.78
2023-02-03T01:12:15.346Z,100932.31
2023-02-03T01:15:27.992Z,100948.66
2023-02-03T01:18:40.803Z,100948.56
2023-02-03T01:21:53.543Z,100948.44
2023-02-03T01:25:08.110Z,100954.72
2023-02-03T01:28:20.721Z,100960.06
2023-02-03T01:31:39.694Z,100965.47
2023-02-03T01:34:52.964Z,100964.78
2023-02-03T01:38:05.392Z,100959.94
2023-02-03T01:41:20.380Z,100965.69
2023-02-03T01:44:35.803Z,100963.31
2023-02-03T01:47:54.025Z,100968.44
2023-02-03T01:51:06.320Z,100964.19
2023-02-03T01:54:27.815Z,100964.56
2023-02-03T01:57:45.354Z,100966.75
2023-02-03T02:00:58.665Z,100958.84
2023-02-03T02:04:11.336Z,100952.44
2023-02-03T02:07:23.863Z,100964.06
2023-02-03T02:10:36.524Z,100958.44
2023-02-03T02:13:49.987Z,100963.78
2023-02-03T02:17:31.928Z,100973.13
2023-02-03T02:21:20.310Z,100966.13
2023-02-03T02:24:39.026Z,100974.41
2023-02-03T02:27:54.113Z,100976.69
2023-02-03T02:31:46.555Z,100976.31
2023-02-03T02:35:03.603Z,100971.03
2023-02-03T02:38:51.849Z,100979.59
2023-02-03T02:42:13.453Z,100990.06
2023-02-03T02:45:48.226Z,100983.69
2023-02-03T02:49:10.017Z,100982.66
2023-02-03T02:52:23.368Z,100978.66
2023-02-03T02:55:36.316Z,100986.81
2023-02-03T02:58:49.744Z,100990.34
2023-02-03T03:02:02.286Z,100991.19
2023-02-03T03:05:15.788Z,100991.69
2023-02-03T03:08:40.961Z,100997.66
2023-02-03T03:12:00.688Z,100994.94
2023-02-03T03:15:19.839Z,101001.50
2023-02-03T03:18:35.123Z,101000.19
2023-02-03T03:21:51.033Z,100988.34
2023-02-03T03:25:25.855Z,100994.91
2023-02-03T03:28:42.931Z,100993.19
2023-02-03T03:31:55.711Z,100980.59
2023-02-03T03:35:08.258Z,100987.47
2023-02-03T03:38:23.972Z,100990.34
2023-02-03T03:42:17.872Z,100986.06
2023-02-03T03:45:41.023Z,100980.44
2023-02-03T03:48:56.183Z,100988.56
2023-02-03T03:52:09.202Z,100992.56
2023-02-03T03:55:21.600Z,100995.12
2023-02-03T03:58:34.252Z,100996.25
2023-02-03T04:01:47.462Z,100999.94
2023-02-03T04:05:00.453Z,100999.94
2023-02-03T04:08:12.794Z,101001.59
2023-02-03T04:11:44.224Z,101003.25
2023-02-03T04:14:56.596Z,100999.09
2023-02-03T04:18:10.575Z,100994.06
2023-02-03T04:21:22.935Z,100995.41
2023-02-03T04:24:35.568Z,101000.31
2023-02-03T04:27:48.057Z,100997.84
2023-02-03T04:31:01.396Z,101008.31
2023-02-03T04:34:13.790Z,101011.69
2023-02-03T04:37:29.496Z,101005.94
2023-02-03T04:40:42.661Z,101006.22
2023-02-03T04:43:55.262Z,101012.44
2023-02-03T04:47:07.557Z,101013.16
2023-02-03T04:50:20.243Z,101011.88
2023-02-03T04:53:32.649Z,101011.13
2023-02-03T04:56:45.269Z,101012.06
2023-02-03T04:59:57.711Z,101007.56
2023-02-03T05:03:10.413Z,101003.25
2023-02-03T05:06:24.744Z,100998.12
2023-02-03T05:09:37.360Z,100989.69
2023-02-03T05:12:49.715Z,100983.38
2023-02-03T05:16:02.336Z,100975.16
2023-02-03T05:19:14.781Z,100983.50
2023-02-03T05:22:27.405Z,100971.34
2023-02-03T05:25:39.725Z,100980.38
2023-02-03T05:28:53.171Z,100990.41
2023-02-03T05:32:06.084Z,100983.31
2023-02-03T05:35:18.720Z,100988.09
2023-02-03T05:38:31.056Z,100986.69
2023-02-03T05:41:52.755Z,100979.72
2023-02-03T05:45:05.383Z,100980.41
2023-02-03T05:48:18.016Z,100977.62
2023-02-03T05:51:30.477Z,100985.44
2023-02-03T05:54:43.099Z,100983.50
2023-02-03T05:57:55.534Z,100995.12
2023-02-03T06:01:08.235Z,101004.03
2023-02-03T06:04:20.987Z,100997.59
2023-02-03T06:07:33.340Z,101007.44
2023-02-03T06:10:46.023Z,101016.25
2023-02-03T06:14:01.564Z,101021.59
2023-02-03T06:17:14.180Z,101024.16
2023-02-03T06:20:26.837Z,101013.72
2023-02-03T06:23:39.640Z,101008.44
2023-02-03T06:26:52.013Z,101001.56
2023-02-03T06:30:05.015Z,101014.00
2023-02-03T06:33:17.498Z,101005.12
2023-02-03T06:36:30.129Z,101016.66
2023-02-03T06:39:42.497Z,101035.72
2023-02-03T06:42:55.169Z,101028.91
2023-02-03T06:46:07.576Z,101035.22
2023-02-03T06:49:20.315Z,101037.53
2023-02-03T06:52:32.712Z,101039.88
2023-02-03T06:55:45.440Z,101028.59
2023-02-03T06:59:00.569Z,101029.16
2023-02-03T07:02:13.352Z,101024.25
2023-02-03T07:05:26.040Z,101017.19
2023-02-03T07:08:38.677Z,101022.88
2023-02-03T07:11:51.041Z,101018.72
2023-02-03T07:15:04.771Z,101023.44
2023-02-03T07:18:35.998Z,101019.84
2023-02-03T07:21:51.795Z,101020.94
2023-02-03T07:25:04.354Z,101019.16
2023-02-03T07:28:17.015Z,101022.09
2023-02-03T07:31:29.538Z,101022.66
2023-02-03T07:34:42.359Z,101019.31
2023-02-03T07:37:54.734Z,101013.44
2023-02-03T07:41:07.461Z,101017.53
2023-02-03T07:44:19.885Z,101022.88
2023-02-03T07:47:33.011Z,101018.97
2023-02-03T07:50:45.824Z,101016.84
2023-02-03T07:53:58.544Z,101015.22
2023-02-03T07:57:10.913Z,101017.66
2023-02-03T08:00:23.815Z,101025.97
2023-02-03T08:03:36.503Z,101029.56
2023-02-03T08:06:50.057Z,101028.16
2023-02-03T08:10:02.913Z,101023.97
2023-02-03T08:13:15.361Z,101025.59
2023-02-03T08:16:28.048Z,101011.00
2023-02-03T08:19:40.465Z,101006.66
2023-02-03T08:22:53.180Z,101019.97
2023-02-03T08:26:05.558Z,101028.12
2023-02-03T08:29:18.722Z,101018.31
2023-02-03T08:32:33.512Z,101029.09
2023-02-03T08:35:50.126Z,101029.09
2023-02-03T08:39:02.523Z,101037.03
2023-02-03T08:42:15.206Z,101036.38
2023-02-03T08:45:27.615Z,101044.06
2023-02-03T08:48:40.576Z,101051.78
2023-02-03T08:51:52.940Z,101046.66
2023-02-03T08:55:06.269Z,101057.97
2023-02-03T08:58:18.763Z,101056.34
2023-02-03T09:01:31.487Z,101052.28
2023-02-03T09:04:44.311Z,101058.56
2023-02-03T09:07:57.537Z,101055.03
2023-02-03T09:11:14.431Z,101049.44
2023-02-03T09:14:27.275Z,101055.19
2023-02-03T09:17:39.667Z,101055.50
2023-02-03T09:20:52.349Z,101049.91
2023-02-03T09:24:04.828Z,101050.16
2023-02-03T09:27:17.582Z,101046.87
2023-02-03T09:30:30.809Z,101053.66
2023-02-03T09:33:43.869Z,101058.06
2023-02-03T09:36:56.273Z,101044.00
2023-02-03T09:40:12.397Z,101051.34
2023-02-03T09:43:24.631Z,101039.59
2023-02-03T09:46:51.833Z,101042.75
2023-02-03T09:50:27.897Z,101034.53
2023-02-03T09:53:45.302Z,101028.97
2023-02-03T09:57:00.292Z,101018.03
2023-02-03T10:00:41.126Z,101015.63
2023-02-03T10:04:18.866Z,101010.69
2023-02-03T10:08:01.706Z,100996.41
2023-02-03T10:12:01.778Z,100990.22
2023-02-03T10:15:27.238Z,100982.03
2023-02-03T10:18:46.827Z,100970.91
2023-02-03T10:21:59.393Z,100966.91
2023-02-03T10:25:14.816Z,100958.97
2023-02-03T10:28:30.088Z,100951.50
2023-02-03T10:31:45.114Z,100952.66
2023-02-03T10:34:57.590Z,100928.75
2023-02-03T10:38:10.912Z,100925.50
2023-02-03T10:41:23.358Z,100923.69
2023-02-03T10:44:51.434Z,100910.03
2023-02-03T10:48:04.591Z,100908.03
2023-02-03T10:51:20.619Z,100903.81
2023-02-03T10:54:34.518Z,100898.44
2023-02-03T10:57:47.152Z,100895.88
2023-02-03T11:01:10.964Z,100883.97
2023-02-03T11:04:26.836Z,100888.16
2023-02-03T11:07:39.176Z,100874.13
2023-02-03T11:10:51.903Z,100872.06
2023-02-03T11:14:04.107Z,100865.53
2023-02-03T11:17:17.709Z,100861.69
2023-02-03T11:20:30.676Z,100857.47
2023-02-03T11:23:47.781Z,100846.81
2023-02-03T11:27:17.198Z,100828.44
2023-02-03T11:30:30.432Z,100826.97
2023-02-03T11:33:42.970Z,100817.63
2023-02-03T11:36:55.650Z,100813.56
2023-02-03T11:40:07.929Z,100798.34
2023-02-03T11:43:22.922Z,100802.22
2023-02-03T11:46:37.834Z,100785.63
2023-02-03T11:50:10.334Z,100781.06
2023-02-03T11:53:25.108Z,100772.03
2023-02-03T11:56:49.287Z,100765.50
2023-02-03T12:00:20.173Z,100749.84
2023-02-03T12:03:35.746Z,100740.38
2023-02-03T12:07:06.147Z,100734.56
2023-02-03T12:10:25.510Z,100724.16
2023-02-03T12:13:56.169Z,100705.09
2023-02-03T12:17:56.864Z,100695.53
2023-02-03T12:21:31.636Z,100682.94
2023-02-03T12:24:59.662Z,100681.53
2023-02-03T12:28:38.067Z,100667.16
2023-02-03T12:32:02.580Z,100658.63
2023-02-03T12:35:21.764Z,100642.56
2023-02-03T12:38:56.067Z,100637.66
2023-02-03T12:42:40.055Z,100620.28
2023-02-03T12:46:03.408Z,100603.88
2023-02-03T12:49:28.899Z,100604.25
2023-02-03T12:53:15.682Z,100581.78
2023-02-03T12:56:31.892Z,100574.09
2023-02-03T12:59:45.419Z,100561.47
2023-02-03T13:03:16.517Z,100543.97
2023-02-03T13:06:54.063Z,100532.66
2023-02-03T13:10:16.134Z,100534.66
2023-02-03T13:13:34.249Z,100523.00
2023-02-03T13:16:53.166Z,100501.34
2023-02-03T13:20:14.193Z,100501.13
2023-02-03T13:23:26.637Z,100498.25
2023-02-03T13:27:03.926Z,100487.97
2023-02-03T13:30:40.982Z,100491.31
2023-02-03T13:34:21.571Z,100486.75
2023-02-03T13:37:46.348Z,100475.38
2023-02-03T13:41:03.266Z,100467.16
2023-02-03T13:44:17.951Z,100465.00
2023-02-03T13:47:31.180Z,100454.47
2023-02-03T13:50:43.637Z,100445.91
2023-02-03T13:54:00.949Z,100440.84
2023-02-03T13:57:28.327Z,100438.34
2023-02-03T14:00:43.873Z,100423.66
2023-02-03T14:03:57.217Z,100431.66
2023-02-03T14:07:34.510Z,100418.78
2023-02-03T14:10:47.149Z,100412.00
2023-02-03T14:14:08.413Z,100408.03
2023-02-03T14:17:36.209Z,100397.69
2023-02-03T14:20:51.214Z,100397.00
2023-02-03T14:24:09.354Z,100382.13
2023-02-03T14:27:23.791Z,100381.78
2023-02-03T14:31:11.953Z,100376.22
2023-02-03T14:34:39.993Z,100352.28
2023-02-03T14:37:53.330Z,100354.97
2023-02-03T14:41:05.657Z,100351.91
2023-02-03T14:44:30.607Z,100363.81
2023-02-03T14:48:10.759Z,100338.41
2023-02-03T14:51:45.070Z,100354.00
2023-02-03T14:55:18.396Z,100333.94
2023-02-03T14:58:48.437Z,100332.63
2023-02-03T15:02:03.674Z,100319.22
2023-02-03T15:05:19.444Z,100319.34
2023-02-03T15:08:42.835Z,100315.56
2023-02-03T15:11:55.450Z,100310.97
2023-02-03T15:15:15.332Z,100310.16
2023-02-03T15:18:33.268Z,100313.00
2023-02-03T15:21:45.646Z,100300.66
2023-02-03T15:25:04.334Z,100291.19
2023-02-03T15:28:20.613Z,100288.47
2023-02-03T15:31:55.210Z,100283.03
2023-02-03T15:35:08.406Z,100270.03
2023-02-03T15:38:29.625Z,100261.66
2023-02-03T15:41:41.978Z,100258.56
2023-02-03T15:44:58.442Z,100258.84
2023-02-03T15:48:36.942Z,100247.03
2023-02-03T15:52:11.554Z,100229.81
2023-02-03T15:55:37.664Z,100226.75
2023-02-03T15:58:50.627Z,100232.44
2023-02-03T16:02:13.124Z,100237.53
2023-02-03T16:05:26.819Z,100243.56
2023-02-03T16:08:43.230Z,100233.56
2023-02-03T16:12:16.188Z,100221.25
2023-02-03T16:15:28.847Z,100216.16
2023-02-03T16:18:41.623Z,100215.03
2023-02-03T16:21:55.672Z,100204.91
2023-02-03T16:25:21.755Z,100199.84
2023-02-03T16:28:52.816Z,100198.72
2023-02-03T16:32:37.112Z,100192.72
2023-02-03T16:36:08.282Z,100184.31
2023-02-03T16:39:39.867Z,100174.28
2023-02-03T16:43:10.820Z,100162.09
2023-02-03T16:46:41.911Z,100152.00
2023-02-03T16:50:12.920Z,100147.44
2023-02-03T16:53:30.329Z,100135.72
2023-02-03T16:56:42.681Z,100122.72
2023-02-03T16:59:55.224Z,100109.88
2023-02-03T17:03:08.088Z,100109.69
2023-02-03T17:06:20.757Z,100104.44
2023-02-03T17:09:35.913Z,100097.75
2023-02-03T17:12:48.532Z,100077.94
2023-02-03T17:16:01.056Z,100072.34
2023-02-03T17:19:13.690Z,100060.03
2023-02-03T17:22:27.123Z,100054.59
2023-02-03T17:25:39.883Z,100044.75
2023-02-03T17:28:52.217Z,100043.03
2023-02-03T17:32:05.193Z,100025.00
2023-02-03T17:35:17.695Z,100021.97
2023-02-03T17:38:31.074Z,100014.69
2023-02-03T17:55:43.076Z,100030.44
2023-02-03T17:58:56.553Z,100012.84
2023-02-03T18:02:09.711Z,100002.87
2023-02-03T18:05:22.368Z,99997.09
2023-02-03T18:08:35.364Z,99991.44
2023-02-03T18:11:47.932Z,99970.81
2023-02-03T18:15:00.288Z,99977.28
2023-02-03T18:18:13.274Z,99996.59
2023-02-03T18:21:25.956Z,99990.03
2023-02-03T18:24:39.820Z,99982.91
2023-02-03T18:27:52.348Z,99988.75
2023-02-03T18:31:06.908Z,99973.94
2023-02-03T18:34:19.372Z,99972.63
2023-02-03T18:37:32.131Z,99968.28
2023-02-03T18:40:44.443Z,99963.72
2023-02-03T18:43:57.089Z,99955.94
2023-02-03T18:47:09.433Z,99949.47
2023-02-03T18:50:22.053Z,99949.34
2023-02-03T18:53:34.374Z,99944.19
2023-02-03T18:56:46.949Z,99945.00
2023-02-03T18:59:59.292Z,99943.69
2023-02-03T19:03:11.930Z,99949.53
2023-02-03T19:06:24.317Z,99946.13
2023-02-03T19:09:37.149Z,99953.38
2023-02-03T19:12:49.658Z,99963.03
2023-02-03T19:16:02.622Z,99955.63
2023-02-03T19:19:15.141Z,99954.00
2023-02-03T19:22:27.716Z,99939.22
2023-02-03T19:25:40.387Z,99925.69
2023-02-03T19:28:53.105Z,99903.41
2023-02-03T19:32:06.885Z,99900.50
2023-02-03T19:35:19.804Z,99902.91
2023-02-03T19:38:32.122Z,99903.56
2023-02-03T19:41:44.790Z,99898.25
2023-02-03T19:44:57.138Z,99903.69
2023-02-03T19:48:09.793Z,99899.22
2023-02-03T19:51:22.249Z,99901.31
2023-02-03T19:54:34.882Z,99898.28
2023-02-03T19:57:47.282Z,99892.81
2023-02-03T20:00:59.925Z,99875.69
2023-02-03T20:04:12.536Z,99862.81
2023-02-03T20:07:25.440Z,99854.78
2023-02-03T20:10:38.397Z,99866.44
2023-02-03T20:13:50.844Z,99863.50
2023-02-03T20:17:06.086Z,99844.16
2023-02-03T20:20:27.106Z,99848.03
2023-02-03T20:23:39.739Z,99829.62
2023-02-03T20:26:52.341Z,99860.94
2023-02-03T20:30:05.313Z,99866.41
2023-02-03T20:33:17.621Z,99868.19
2023-02-03T20:36:30.546Z,99849.81
2023-02-03T20:39:42.897Z,99888.84
2023-02-03T20:42:55.683Z,99865.16
2023-02-03T20:46:12.743Z,99884.81
2023-02-03T20:49:25.975Z,99867.06
2023-02-03T20:52:38.193Z,99866.44
2023-02-03T20:55:56.884Z,99860.47
2023-02-03T20:59:11.125Z,99873.81
2023-02-03T21:02:31.261Z,99869.97
2023-02-03T21:05:44.577Z,99882.88
2023-02-03T21:09:19.705Z,99900.13
2023-02-03T21:12:32.079Z,99888.03
2023-02-03T21:15:44.683Z,99885.09
2023-02-03T21:19:02.748Z,99884.13
2023-02-03T21:22:17.473Z,99883.97
2023-02-03T21:25:31.736Z,99877.84
2023-02-03T21:28:44.388Z,99878.00
2023-02-03T21:31:56.830Z,99887.06
2023-02-03T21:35:30.957Z,99895.28
2023-02-03T21:38:43.298Z,99883.97
2023-02-03T21:41:56.840Z,99893.19
2023-02-03T21:45:15.020Z,99907.03
2023-02-03T21:48:32.501Z,99895.59
2023-02-03T21:51:44.841Z,99910.63
2023-02-03T21:54:57.432Z,99918.03
2023-02-03T21:58:23.702Z,99909.13
2023-02-03T22:01:36.880Z,99904.13
2023-02-03T22:04:49.578Z,99923.31
2023-02-03T22:08:23.164Z,99922.84
2023-02-03T22:11:35.863Z,99916.41
2023-02-03T22:14:48.172Z,99902.03
2023-02-03T22:18:00.771Z,99903.13
2023-02-03T22:21:13.220Z,99916.41
2023-02-03T22:24:25.828Z,99927.66
2023-02-03T22:27:38.231Z,99903.16
2023-02-03T22:30:50.916Z,99909.56
2023-02-03T22:34:03.367Z,99937.28
2023-02-03T22:37:15.990Z,99936.47
2023-02-03T22:40:28.897Z,99921.81
2023-02-03T22:43:41.855Z,99937.94
2023-02-03T22:46:54.232Z,99932.75
2023-02-03T22:50:07.474Z,99959.22
2023-02-03T22:53:19.812Z,99948.91
2023-02-03T22:56:32.388Z,99940.66
2023-02-03T22:59:44.729Z,99960.78
2023-02-03T23:02:57.367Z,99969.38
2023-02-03T23:06:09.700Z,99969.19
2023-02-03T23:09:22.347Z,99971.94
2023-02-03T23:12:34.674Z,99961.19
2023-02-03T23:15:47.268Z,99975.00
2023-02-03T23:18:59.697Z,99949.91
2023-02-03T23:22:12.295Z,99942.34
2023-02-03T23:25:24.672Z,99934.44
2023-02-03T23:28:37.279Z,99942.00
2023-02-03T23:31:49.727Z,99941.34
2023-02-03T23:35:21.038Z,99953.47
2023-02-03T23:38:33.680Z,99954.72
2023-02-03T23:41:46.285Z,99943.81
2023-02-03T23:44:59.263Z,99943.50
2023-02-03T23:48:12.612Z,99953.47
2023-02-03T23:51:24.960Z,99937.03
2023-02-03T23:54:37.573Z,99932.19
2023-02-03T23:57:50.225Z,99931.69
